Kings Canyon Natl Park, California
Current Conditions -  °F | °C
As of 6:21 AM on Thursday 18 Dec 2014 (Local Time) from KBIH Reporting Station
Broken Clouds Broken Clouds  
Wind Chill: 30°   Ceiling: 4400
Heat Index: 30°   Visibility: 10mi
Dew Point: 26°   Wind: 0mph
Humidity: 85%   Direction: NA
Pressure: 30.12"   Gusts: NA
Location:  36.99°N, 118.85°W
Report Text: KBIH 181421Z AUTO 00000KT 10SM SCT027 BKN044 BKN080 M01/M03 A3012 RMK AO2 T10111033
Loading
Personal Weather Stations






























Interactive Weather Map New forecast layout! Learn more

10-Day Weather Forecast

Advertisements
Track Severe Weather on mobile